sensor_id;sensor_type;location;lat;lon;timestamp;pressure;altitude;pressure_sealevel;temperature;humidity
47374;BME280;33123;50.118;10.272;2023-02-12T00:02:26;99617.78;;;7.06;72.17
47374;BME280;33123;50.118;10.272;2023-02-12T00:04:54;99619.59;;;7.06;72.39
47374;BME280;33123;50.118;10.272;2023-02-12T00:07:20;99619.75;;;7.04;72.47
47374;BME280;33123;50.118;10.272;2023-02-12T00:09:47;99615.31;;;7.05;72.01
47374;BME280;33123;50.118;10.272;2023-02-12T00:12:14;99616.50;;;7.02;72.14
47374;BME280;33123;50.118;10.272;2023-02-12T00:14:40;99614.06;;;7.01;71.99
47374;BME280;33123;50.118;10.272;2023-02-12T00:17:07;99617.31;;;7.03;72.10
47374;BME280;33123;50.118;10.272;2023-02-12T00:19:34;99613.06;;;7.02;72.24
47374;BME280;33123;50.118;10.272;2023-02-12T00:22:01;99607.81;;;7.02;72.45
47374;BME280;33123;50.118;10.272;2023-02-12T00:24:28;99613.06;;;7.02;72.22
47374;BME280;33123;50.118;10.272;2023-02-12T00:26:55;99606.19;;;7.01;71.71
47374;BME280;33123;50.118;10.272;2023-02-12T00:29:21;99606.19;;;7.01;71.58
47374;BME280;33123;50.118;10.272;2023-02-12T00:31:48;99608.16;;;6.99;71.03
47374;BME280;33123;50.118;10.272;2023-02-12T00:34:14;99615.38;;;6.97;71.10
47374;BME280;33123;50.118;10.272;2023-02-12T00:36:41;99619.19;;;6.94;71.51
47374;BME280;33123;50.118;10.272;2023-02-12T00:39:09;99611.66;;;6.91;71.63
47374;BME280;33123;50.118;10.272;2023-02-12T00:41:36;99613.66;;;6.89;71.75
47374;BME280;33123;50.118;10.272;2023-02-12T00:44:03;99616.44;;;6.87;71.69
47374;BME280;33123;50.118;10.272;2023-02-12T00:46:29;99613.19;;;6.85;71.33
47374;BME280;33123;50.118;10.272;2023-02-12T00:48:56;99615.16;;;6.83;70.58
47374;BME280;33123;50.118;10.272;2023-02-12T00:51:22;99620.75;;;6.80;70.75
47374;BME280;33123;50.118;10.272;2023-02-12T00:53:49;99605.09;;;6.72;69.97
47374;BME280;33123;50.118;10.272;2023-02-12T00:56:17;99619.81;;;6.73;70.16
47374;BME280;33123;50.118;10.272;2023-02-12T00:58:44;99616.91;;;6.68;69.79
47374;BME280;33123;50.118;10.272;2023-02-12T01:01:10;99583.63;;;6.46;69.71
47374;BME280;33123;50.118;10.272;2023-02-12T01:03:37;99615.97;;;6.61;69.69
47374;BME280;33123;50.118;10.272;2023-02-12T01:06:04;99605.00;;;6.57;70.43
47374;BME280;33123;50.118;10.272;2023-02-12T01:08:31;99608.78;;;6.55;70.42
47374;BME280;33123;50.118;10.272;2023-02-12T01:11:00;99607.31;;;6.52;70.24
47374;BME280;33123;50.118;10.272;2023-02-12T01:13:29;99605.88;;;6.50;70.58
47374;BME280;33123;50.118;10.272;2023-02-12T01:16:04;99605.22;;;6.48;70.83
47374;BME280;33123;50.118;10.272;2023-02-12T01:18:33;99600.34;;;6.45;70.83
47374;BME280;33123;50.118;10.272;2023-02-12T01:20:59;99597.72;;;6.45;70.44
47374;BME280;33123;50.118;10.272;2023-02-12T01:23:26;99590.19;;;6.42;70.77
47374;BME280;33123;50.118;10.272;2023-02-12T01:25:53;99595.78;;;6.39;70.86
47374;BME280;33123;50.118;10.272;2023-02-12T01:28:19;99585.66;;;6.35;70.73
47374;BME280;33123;50.118;10.272;2023-02-12T01:30:47;99584.03;;;6.34;71.13
47374;BME280;33123;50.118;10.272;2023-02-12T01:33:14;99585.03;;;6.33;71.31
47374;BME280;33123;50.118;10.272;2023-02-12T01:35:40;99585.97;;;6.32;71.27
47374;BME280;33123;50.118;10.272;2023-02-12T01:38:07;99569.38;;;6.17;71.29
47374;BME280;33123;50.118;10.272;2023-02-12T01:40:33;99590.75;;;6.29;71.18
47374;BME280;33123;50.118;10.272;2023-02-12T01:43:01;99582.72;;;6.30;70.95
47374;BME280;33123;50.118;10.272;2023-02-12T01:45:48;99581.09;;;6.29;70.65
47374;BME280;33123;50.118;10.272;2023-02-12T01:48:17;99583.09;;;6.27;70.66
47374;BME280;33123;50.118;10.272;2023-02-12T01:50:46;99584.06;;;6.26;70.67
47374;BME280;33123;50.118;10.272;2023-02-12T01:53:15;99577.84;;;6.27;71.01
47374;BME280;33123;50.118;10.272;2023-02-12T01:55:46;99572.75;;;6.26;71.10
47374;BME280;33123;50.118;10.272;2023-02-12T01:58:14;99570.31;;;6.24;70.68
47374;BME280;33123;50.118;10.272;2023-02-12T02:00:41;99567.72;;;6.24;70.82
47374;BME280;33123;50.118;10.272;2023-02-12T02:03:09;99578.19;;;6.24;70.64
47374;BME280;33123;50.118;10.272;2023-02-12T02:05:41;99534.78;;;5.99;70.99
47374;BME280;33123;50.118;10.272;2023-02-12T02:08:10;99573.28;;;6.21;71.13
47374;BME280;33123;50.118;10.272;2023-02-12T02:10:37;99572.47;;;6.21;71.02
47374;BME280;33123;50.118;10.272;2023-02-12T02:13:04;99576.88;;;6.20;70.83
47374;BME280;33123;50.118;10.272;2023-02-12T02:15:50;99574.44;;;6.19;71.09
47374;BME280;33123;50.118;10.272;2023-02-12T02:18:23;99573.63;;;6.18;70.76
47374;BME280;33123;50.118;10.272;2023-02-12T02:24:44;99580.66;;;6.18;70.58
47374;BME280;33123;50.118;10.272;2023-02-12T02:27:26;99574.63;;;6.17;70.92
47374;BME280;33123;50.118;10.272;2023-02-12T02:30:20;99572.97;;;6.16;70.70
47374;BME280;33123;50.118;10.272;2023-02-12T02:32:54;99576.56;;;6.15;70.85
47374;BME280;33123;50.118;10.272;2023-02-12T02:35:27;99576.56;;;6.15;71.05
47374;BME280;33123;50.118;10.272;2023-02-12T02:38:06;99572.50;;;6.13;70.67
47374;BME280;33123;50.118;10.272;2023-02-12T02:40:40;99571.84;;;6.11;71.19
47374;BME280;33123;50.118;10.272;2023-02-12T02:43:15;99574.47;;;6.11;71.01
47374;BME280;33123;50.118;10.272;2023-02-12T02:45:46;99570.41;;;6.08;71.39
47374;BME280;33123;50.118;10.272;2023-02-12T02:48:17;99576.63;;;6.07;71.17
47374;BME280;33123;50.118;10.272;2023-02-12T02:50:47;99575.00;;;6.06;71.27
47374;BME280;33123;50.118;10.272;2023-02-12T02:53:18;99567.31;;;6.04;71.10
47374;BME280;33123;50.118;10.272;2023-02-12T02:55:50;99578.59;;;6.05;71.32
47374;BME280;33123;50.118;10.272;2023-02-12T02:58:21;99555.91;;;5.89;71.41
47374;BME280;33123;50.118;10.272;2023-02-12T03:00:54;99580.56;;;6.03;71.60
47374;BME280;33123;50.118;10.272;2023-02-12T03:03:25;99584.81;;;6.04;71.71
47374;BME280;33123;50.118;10.272;2023-02-12T03:05:58;99585.81;;;6.03;71.90
47374;BME280;33123;50.118;10.272;2023-02-12T03:08:31;99581.38;;;6.03;71.52
47374;BME280;33123;50.118;10.272;2023-02-12T03:11:04;99595.13;;;6.05;71.52
47374;BME280;33123;50.118;10.272;2023-02-12T03:13:33;99590.72;;;6.06;71.60
47374;BME280;33123;50.118;10.272;2023-02-12T03:16:07;99593.31;;;6.06;71.34
47374;BME280;33123;50.118;10.272;2023-02-12T03:18:39;99600.66;;;6.11;71.55
47374;BME280;33123;50.118;10.272;2023-02-12T03:21:11;99597.56;;;6.07;71.13
47374;BME280;33123;50.118;10.272;2023-02-12T03:23:41;99577.63;;;5.98;70.95
47374;BME280;33123;50.118;10.272;2023-02-12T03:26:11;99597.22;;;6.10;70.86
47374;BME280;33123;50.118;10.272;2023-02-12T03:28:42;99601.31;;;6.13;70.59
47374;BME280;33123;50.118;10.272;2023-02-12T03:31:18;99601.19;;;6.06;71.19
47374;BME280;33123;50.118;10.272;2023-02-12T03:33:54;99604.63;;;6.06;71.33
47374;BME280;33123;50.118;10.272;2023-02-12T03:36:32;99610.16;;;6.03;71.01
47374;BME280;33123;50.118;10.272;2023-02-12T03:39:05;99599.88;;;6.02;71.06
47374;BME280;33123;50.118;10.272;2023-02-12T03:41:40;99603.94;;;6.04;71.32
47374;BME280;33123;50.118;10.272;2023-02-12T03:44:15;99605.75;;;6.04;70.92
47374;BME280;33123;50.118;10.272;2023-02-12T03:46:52;99607.91;;;6.00;71.13
47374;BME280;33123;50.118;10.272;2023-02-12T03:49:26;99564.28;;;5.76;70.80
47374;BME280;33123;50.118;10.272;2023-02-12T03:51:54;99605.13;;;6.02;71.05
47374;BME280;33123;50.118;10.272;2023-02-12T03:54:21;99611.97;;;6.03;71.79
47374;BME280;33123;50.118;10.272;2023-02-12T03:56:51;99606.09;;;6.01;71.86
47374;BME280;33123;50.118;10.272;2023-02-12T03:59:21;99608.06;;;5.99;71.89
47374;BME280;33123;50.118;10.272;2023-02-12T04:01:52;99612.34;;;6.00;71.93
47374;BME280;33123;50.118;10.272;2023-02-12T04:04:19;99610.03;;;5.97;71.47
47374;BME280;33123;50.118;10.272;2023-02-12T04:06:48;99614.47;;;5.96;71.04
47374;BME280;33123;50.118;10.272;2023-02-12T04:09:15;99619.69;;;5.96;71.01
47374;BME280;33123;50.118;10.272;2023-02-12T04:11:53;99615.59;;;5.94;71.31
47374;BME280;33123;50.118;10.272;2023-02-12T04:14:30;99618.53;;;5.91;71.55
47374;BME280;33123;50.118;10.272;2023-02-12T04:17:04;99623.78;;;5.91;71.60
47374;BME280;33123;50.118;10.272;2023-02-12T04:19:39;99620.19;;;5.92;71.74
47374;BME280;33123;50.118;10.272;2023-02-12T04:22:20;99621.81;;;5.93;71.62
47374;BME280;33123;50.118;10.272;2023-02-12T04:24:57;99629.66;;;5.93;71.32
47374;BME280;33123;50.118;10.272;2023-02-12T04:27:29;99629.53;;;5.94;71.55
47374;BME280;33123;50.118;10.272;2023-02-12T04:30:04;99623.31;;;5.95;71.23
47374;BME280;33123;50.118;10.272;2023-02-12T04:32:38;99622.50;;;5.95;71.32
47374;BME280;33123;50.118;10.272;2023-02-12T04:35:12;99629.34;;;5.96;70.86
47374;BME280;33123;50.118;10.272;2023-02-12T04:37:48;99630.47;;;5.93;71.02
47374;BME280;33123;50.118;10.272;2023-02-12T04:40:18;99631.28;;;5.94;70.73
47374;BME280;33123;50.118;10.272;2023-02-12T04:42:47;99649.63;;;5.94;70.99
47374;BME280;33123;50.118;10.272;2023-02-12T04:45:18;99636.53;;;5.94;71.38
47374;BME280;33123;50.118;10.272;2023-02-12T04:47:47;99635.56;;;5.95;71.12
47374;BME280;33123;50.118;10.272;2023-02-12T04:50:14;99635.91;;;5.92;70.88
47374;BME280;33123;50.118;10.272;2023-02-12T04:52:40;99632.59;;;5.90;71.23
47374;BME280;33123;50.118;10.272;2023-02-12T04:55:07;99641.75;;;5.94;71.99
47374;BME280;33123;50.118;10.272;2023-02-12T04:57:34;99635.72;;;5.93;72.61
47374;BME280;33123;50.118;10.272;2023-02-12T05:00:00;99636.53;;;5.94;72.94
47374;BME280;33123;50.118;10.272;2023-02-12T05:02:27;99631.28;;;5.94;73.06
47374;BME280;33123;50.118;10.272;2023-02-12T05:04:55;99627.72;;;5.95;72.82
47374;BME280;33123;50.118;10.272;2023-02-12T05:07:21;99635.09;;;5.91;73.17
47374;BME280;33123;50.118;10.272;2023-02-12T05:09:48;99638.34;;;5.93;73.00
47374;BME280;33123;50.118;10.272;2023-02-12T05:12:14;99655.69;;;5.94;72.61
47374;BME280;33123;50.118;10.272;2023-02-12T05:14:41;99640.78;;;5.87;72.22
47374;BME280;33123;50.118;10.272;2023-02-12T05:17:08;99654.22;;;5.92;72.00
47374;BME280;33123;50.118;10.272;2023-02-12T05:19:34;99664.69;;;5.92;71.84
47374;BME280;33123;50.118;10.272;2023-02-12T05:22:02;99667.31;;;5.92;72.32
47374;BME280;33123;50.118;10.272;2023-02-12T05:24:29;99665.97;;;5.88;72.29
47374;BME280;33123;50.118;10.272;2023-02-12T05:26:55;99667.63;;;5.80;72.46
47374;BME280;33123;50.118;10.272;2023-02-12T05:29:22;99634.63;;;5.55;73.14
47374;BME280;33123;50.118;10.272;2023-02-12T05:31:48;99677.41;;;5.87;72.98
47374;BME280;33123;50.118;10.272;2023-02-12T05:34:15;99676.44;;;5.88;72.56
47374;BME280;33123;50.118;10.272;2023-02-12T05:36:42;99678.09;;;5.89;72.52
47374;BME280;33123;50.118;10.272;2023-02-12T05:39:10;99681.66;;;5.88;72.30
47374;BME280;33123;50.118;10.272;2023-02-12T05:41:36;99678.41;;;5.86;72.37
47374;BME280;33123;50.118;10.272;2023-02-12T05:44:04;99673.16;;;5.86;72.46
47374;BME280;33123;50.118;10.272;2023-02-12T05:46:32;99673.34;;;5.84;72.16
47374;BME280;33123;50.118;10.272;2023-02-12T05:48:59;99683.63;;;5.86;72.34
47374;BME280;33123;50.118;10.272;2023-02-12T05:51:26;99677.28;;;5.80;72.79
47374;BME280;33123;50.118;10.272;2023-02-12T05:53:56;99679.41;;;5.85;72.90
47374;BME280;33123;50.118;10.272;2023-02-12T05:56:26;99682.81;;;5.85;72.56
47374;BME280;33123;50.118;10.272;2023-02-12T05:58:55;99689.84;;;5.85;72.75
47374;BME280;33123;50.118;10.272;2023-02-12T06:01:24;99686.44;;;5.84;73.15
47374;BME280;33123;50.118;10.272;2023-02-12T06:03:51;99683.97;;;5.82;73.05
47374;BME280;33123;50.118;10.272;2023-02-12T06:06:17;99688.41;;;5.74;73.49
47374;BME280;33123;50.118;10.272;2023-02-12T06:08:46;99671.56;;;5.68;73.75
47374;BME280;33123;50.118;10.272;2023-02-12T06:11:14;99672.38;;;5.69;73.52
47374;BME280;33123;50.118;10.272;2023-02-12T06:13:42;99674.81;;;5.70;73.44
47374;BME280;33123;50.118;10.272;2023-02-12T06:16:16;99675.00;;;5.69;73.73
47374;BME280;33123;50.118;10.272;2023-02-12T06:18:43;99681.88;;;5.78;73.47
47374;BME280;33123;50.118;10.272;2023-02-12T06:21:09;99680.69;;;5.80;73.19
47374;BME280;33123;50.118;10.272;2023-02-12T06:23:36;99683.97;;;5.82;72.88
47374;BME280;33123;50.118;10.272;2023-02-12T06:26:03;99683.16;;;5.82;73.18
47374;BME280;33123;50.118;10.272;2023-02-12T06:28:29;99683.97;;;5.82;73.17
47374;BME280;33123;50.118;10.272;2023-02-12T06:30:57;99692.47;;;5.85;73.10
47374;BME280;33123;50.118;10.272;2023-02-12T06:33:24;99683.63;;;5.86;72.74
47374;BME280;33123;50.118;10.272;2023-02-12T06:35:51;99690.50;;;5.87;72.66
47374;BME280;33123;50.118;10.272;2023-02-12T06:38:17;99688.56;;;5.89;71.87
47374;BME280;33123;50.118;10.272;2023-02-12T06:40:44;99695.41;;;5.90;71.89
47374;BME280;33123;50.118;10.272;2023-02-12T06:43:11;99697.03;;;5.91;71.92
47374;BME280;33123;50.118;10.272;2023-02-12T06:45:37;99694.09;;;5.86;72.23
47374;BME280;33123;50.118;10.272;2023-02-12T06:48:05;99690.50;;;5.87;72.43
47374;BME280;33123;50.118;10.272;2023-02-12T06:50:32;99702.13;;;5.92;72.32
47374;BME280;33123;50.118;10.272;2023-02-12T06:52:58;99707.19;;;5.94;72.03
47374;BME280;33123;50.118;10.272;2023-02-12T06:55:25;99707.88;;;5.96;72.17
47374;BME280;33123;50.118;10.272;2023-02-12T06:57:52;99707.69;;;5.97;72.34
47374;BME280;33123;50.118;10.272;2023-02-12T07:00:20;99704.91;;;5.99;72.56
47374;BME280;33123;50.118;10.272;2023-02-12T07:02:51;99712.44;;;6.02;72.50
47374;BME280;33123;50.118;10.272;2023-02-12T07:05:19;99716.34;;;6.06;72.36
47374;BME280;33123;50.118;10.272;2023-02-12T07:07:46;99722.22;;;6.08;72.14
47374;BME280;33123;50.118;10.272;2023-02-12T07:10:12;99681.19;;;5.84;71.99
47374;BME280;33123;50.118;10.272;2023-02-12T07:12:39;99723.38;;;6.14;72.38
47374;BME280;33123;50.118;10.272;2023-02-12T07:15:06;99731.84;;;6.16;72.46
47374;BME280;33123;50.118;10.272;2023-02-12T07:17:33;99729.91;;;6.18;72.07
47374;BME280;33123;50.118;10.272;2023-02-12T07:19:59;99735.78;;;6.20;72.51
47374;BME280;33123;50.118;10.272;2023-02-12T07:22:27;99734.66;;;6.22;72.40
47374;BME280;33123;50.118;10.272;2023-02-12T07:24:54;99737.91;;;6.24;72.11
47374;BME280;33123;50.118;10.272;2023-02-12T07:27:20;99735.91;;;6.26;72.80
47374;BME280;33123;50.118;10.272;2023-02-12T07:29:47;99735.78;;;6.28;72.63
47374;BME280;33123;50.118;10.272;2023-02-12T07:32:14;99739.03;;;6.30;72.52
47374;BME280;33123;50.118;10.272;2023-02-12T07:34:40;99741.47;;;6.31;72.48
47374;BME280;33123;50.118;10.272;2023-02-12T07:37:07;99747.38;;;6.33;73.33
47374;BME280;33123;50.118;10.272;2023-02-12T07:39:35;99749.66;;;6.37;72.39
47374;BME280;33123;50.118;10.272;2023-02-12T07:42:01;99752.94;;;6.39;72.90
47374;BME280;33123;50.118;10.272;2023-02-12T07:44:28;99750.94;;;6.41;72.48
47374;BME280;33123;50.118;10.272;2023-02-12T07:46:56;99752.25;;;6.45;72.83
47374;BME280;33123;50.118;10.272;2023-02-12T07:49:23;99745.03;;;6.47;72.75
47374;BME280;33123;50.118;10.272;2023-02-12T07:51:50;99755.50;;;6.47;72.63
47374;BME280;33123;50.118;10.272;2023-02-12T07:54:16;99758.44;;;6.52;72.86
47374;BME280;33123;50.118;10.272;2023-02-12T07:56:44;99757.13;;;6.56;72.93
47374;BME280;33123;50.118;10.272;2023-02-12T07:59:13;99760.22;;;6.59;73.34
47374;BME280;33123;50.118;10.272;2023-02-12T08:01:41;99734.06;;;6.43;73.18
47374;BME280;33123;50.118;10.272;2023-02-12T08:04:10;99763.97;;;6.65;72.91
47374;BME280;33123;50.118;10.272;2023-02-12T08:06:39;99759.38;;;6.67;72.92
47374;BME280;33123;50.118;10.272;2023-02-12T08:09:09;99765.09;;;6.71;73.13
47374;BME280;33123;50.118;10.272;2023-02-12T08:11:36;99762.13;;;6.74;72.38
47374;BME280;33123;50.118;10.272;2023-02-12T08:14:05;99767.19;;;6.75;72.33
47374;BME280;33123;50.118;10.272;2023-02-12T08:16:35;99766.06;;;6.78;72.75
47374;BME280;33123;50.118;10.272;2023-02-12T08:19:02;99767.69;;;6.79;73.05
47374;BME280;33123;50.118;10.272;2023-02-12T08:21:29;99770.13;;;6.80;72.92
47374;BME280;33123;50.118;10.272;2023-02-12T08:23:57;99772.41;;;6.83;72.86
47374;BME280;33123;50.118;10.272;2023-02-12T08:26:25;99779.28;;;6.84;72.95
47374;BME280;33123;50.118;10.272;2023-02-12T08:28:55;99776.66;;;6.84;73.09
47374;BME280;33123;50.118;10.272;2023-02-12T08:31:27;99781.72;;;6.86;72.72
47374;BME280;33123;50.118;10.272;2023-02-12T08:33:54;99776.31;;;6.87;73.15
47374;BME280;33123;50.118;10.272;2023-02-12T08:36:22;99789.41;;;6.87;73.08
47374;BME280;33123;50.118;10.272;2023-02-12T08:38:50;99789.41;;;6.87;72.60
47374;BME280;33123;50.118;10.272;2023-02-12T08:41:19;99770.31;;;6.79;72.65
47374;BME280;33123;50.118;10.272;2023-02-12T08:43:46;99788.44;;;6.88;72.85
47374;BME280;33123;50.118;10.272;2023-02-12T08:46:15;99790.09;;;6.90;73.36
47374;BME280;33123;50.118;10.272;2023-02-12T08:48:43;99785.22;;;6.78;73.14
47374;BME280;33123;50.118;10.272;2023-02-12T08:51:12;99787.47;;;6.90;73.59
47374;BME280;33123;50.118;10.272;2023-02-12T08:53:40;99791.53;;;6.92;73.10
47374;BME280;33123;50.118;10.272;2023-02-12T08:56:10;99789.41;;;6.87;73.12
47374;BME280;33123;50.118;10.272;2023-02-12T08:58:38;99791.06;;;6.88;73.32
47374;BME280;33123;50.118;10.272;2023-02-12T09:01:09;99797.75;;;6.91;73.68
47374;BME280;33123;50.118;10.272;2023-02-12T09:03:36;99798.41;;;6.93;74.27
47374;BME280;33123;50.118;10.272;2023-02-12T09:06:05;99793.97;;;6.94;73.60
47374;BME280;33123;50.118;10.272;2023-02-12T09:08:32;99799.22;;;6.94;73.83
47374;BME280;33123;50.118;10.272;2023-02-12T09:10:59;99795.63;;;6.95;73.65
47374;BME280;33123;50.118;10.272;2023-02-12T09:13:29;99803.31;;;6.96;73.77
47374;BME280;33123;50.118;10.272;2023-02-12T09:15:55;99800.88;;;6.95;73.78
47374;BME280;33123;50.118;10.272;2023-02-12T09:18:22;99798.56;;;7.00;74.34
47374;BME280;33123;50.118;10.272;2023-02-12T09:20:49;99804.56;;;7.08;74.55
47374;BME280;33123;50.118;10.272;2023-02-12T09:23:17;99800.44;;;7.14;74.27
47374;BME280;33123;50.118;10.272;2023-02-12T09:25:45;99803.38;;;7.19;74.14
47374;BME280;33123;50.118;10.272;2023-02-12T09:28:13;99796.50;;;7.18;73.73
47374;BME280;33123;50.118;10.272;2023-02-12T09:30:40;99812.03;;;7.28;73.85
47374;BME280;33123;50.118;10.272;2023-02-12T09:33:09;99803.59;;;7.32;73.87
47374;BME280;33123;50.118;10.272;2023-02-12T09:35:36;99801.28;;;7.37;74.12
47374;BME280;33123;50.118;10.272;2023-02-12T09:38:04;99801.66;;;7.34;73.28
47374;BME280;33123;50.118;10.272;2023-02-12T09:40:43;99802.94;;;7.38;73.36
47374;BME280;33123;50.118;10.272;2023-02-12T09:43:17;99809.31;;;7.44;73.59
47374;BME280;33123;50.118;10.272;2023-02-12T09:45:51;99805.97;;;7.50;73.82
47374;BME280;33123;50.118;10.272;2023-02-12T09:48:33;99802.53;;;7.50;73.51
47374;BME280;33123;50.118;10.272;2023-02-12T09:51:04;99804.28;;;7.57;73.86
47374;BME280;33123;50.118;10.272;2023-02-12T09:53:35;99795.53;;;7.65;73.37
47374;BME280;33123;50.118;10.272;2023-02-12T09:56:10;99800.38;;;7.76;73.29
47374;BME280;33123;50.118;10.272;2023-02-12T09:58:41;99801.72;;;7.72;73.43
47374;BME280;33123;50.118;10.272;2023-02-12T10:01:13;99794.41;;;7.82;72.44
47374;BME280;33123;50.118;10.272;2023-02-12T10:03:47;99803.97;;;7.98;73.42
47374;BME280;33123;50.118;10.272;2023-02-12T10:06:19;99799.28;;;8.08;73.37
47374;BME280;33123;50.118;10.272;2023-02-12T10:08:58;99801.00;;;8.16;72.18
47374;BME280;33123;50.118;10.272;2023-02-12T10:11:37;99811.47;;;8.24;72.26
47374;BME280;33123;50.118;10.272;2023-02-12T10:14:28;99799.47;;;8.21;72.06
47374;BME280;33123;50.118;10.272;2023-02-12T10:17:07;99811.16;;;8.42;71.45
47374;BME280;33123;50.118;10.272;2023-02-12T10:19:57;99804.63;;;8.53;71.28
47374;BME280;33123;50.118;10.272;2023-02-12T10:22:34;99800.53;;;8.65;71.73
47374;BME280;33123;50.118;10.272;2023-02-12T10:25:16;99809.88;;;8.82;72.11
47374;BME280;33123;50.118;10.272;2023-02-12T10:27:50;99808.31;;;9.03;72.81
47374;BME280;33123;50.118;10.272;2023-02-12T10:30:20;99806.09;;;9.21;71.47
47374;BME280;33123;50.118;10.272;2023-02-12T10:32:50;99811.13;;;9.37;71.13
47374;BME280;33123;50.118;10.272;2023-02-12T10:35:20;99806.84;;;9.51;70.85
47374;BME280;33123;50.118;10.272;2023-02-12T10:37:52;99808.34;;;9.60;69.38
47374;BME280;33123;50.118;10.272;2023-02-12T10:40:24;99805.59;;;9.68;69.24
47374;BME280;33123;50.118;10.272;2023-02-12T10:42:55;99805.28;;;9.78;69.96
47374;BME280;33123;50.118;10.272;2023-02-12T10:45:25;99800.13;;;9.91;70.79
47374;BME280;33123;50.118;10.272;2023-02-12T10:48:03;99790.38;;;10.13;70.87
47374;BME280;33123;50.118;10.272;2023-02-12T10:50:39;99798.47;;;10.33;68.59
47374;BME280;33123;50.118;10.272;2023-02-12T10:53:12;99795.72;;;10.48;69.17
47374;BME280;33123;50.118;10.272;2023-02-12T10:55:40;99791.94;;;10.64;68.18
47374;BME280;33123;50.118;10.272;2023-02-12T10:58:19;99790.81;;;10.79;67.23
47374;BME280;33123;50.118;10.272;2023-02-12T11:00:46;99792.69;;;10.92;68.19
47374;BME280;33123;50.118;10.272;2023-02-12T11:03:22;99784.84;;;11.05;67.61
47374;BME280;33123;50.118;10.272;2023-02-12T11:05:49;99781.44;;;11.18;67.03
47374;BME280;33123;50.118;10.272;2023-02-12T11:08:30;99780.06;;;11.42;67.68
47374;BME280;33123;50.118;10.272;2023-02-12T11:11:04;99778.50;;;11.68;67.26
47374;BME280;33123;50.118;10.272;2023-02-12T11:13:33;99777.72;;;11.87;65.69
47374;BME280;33123;50.118;10.272;2023-02-12T11:16:01;99774.25;;;11.93;64.41
47374;BME280;33123;50.118;10.272;2023-02-12T11:18:29;99772.44;;;12.07;63.96
47374;BME280;33123;50.118;10.272;2023-02-12T11:20:59;99768.38;;;11.98;64.45
47374;BME280;33123;50.118;10.272;2023-02-12T11:23:29;99762.88;;;11.93;65.04
47374;BME280;33123;50.118;10.272;2023-02-12T11:25:59;99756.13;;;12.30;67.03
47374;BME280;33123;50.118;10.272;2023-02-12T11:28:27;99746.63;;;12.80;64.25
47374;BME280;33123;50.118;10.272;2023-02-12T11:30:57;99738.66;;;13.32;60.84
47374;BME280;33123;50.118;10.272;2023-02-12T11:33:27;99747.09;;;13.79;59.78
47374;BME280;33123;50.118;10.272;2023-02-12T11:35:56;99750.81;;;13.96;58.76
47374;BME280;33123;50.118;10.272;2023-02-12T11:38:28;99748.41;;;14.13;59.11
47374;BME280;33123;50.118;10.272;2023-02-12T11:40:58;99747.31;;;14.20;59.23
47374;BME280;33123;50.118;10.272;2023-02-12T11:43:26;99742.00;;;14.20;56.78
47374;BME280;33123;50.118;10.272;2023-02-12T11:46:00;99744.47;;;14.22;56.56
47374;BME280;33123;50.118;10.272;2023-02-12T11:48:29;99741.44;;;14.18;57.00
47374;BME280;33123;50.118;10.272;2023-02-12T11:50:59;99736.88;;;14.25;56.83
47374;BME280;33123;50.118;10.272;2023-02-12T11:53:28;99734.22;;;14.25;56.98
47374;BME280;33123;50.118;10.272;2023-02-12T11:55:58;99742.78;;;14.27;57.81
47374;BME280;33123;50.118;10.272;2023-02-12T11:58:26;99738.91;;;14.05;56.03
47374;BME280;33123;50.118;10.272;2023-02-12T12:00:57;99741.13;;;14.08;56.54
47374;BME280;33123;50.118;10.272;2023-02-12T12:03:31;99731.34;;;13.84;56.31
47374;BME280;33123;50.118;10.272;2023-02-12T12:06:04;99730.22;;;13.73;56.89
47374;BME280;33123;50.118;10.272;2023-02-12T12:08:35;99731.59;;;13.51;57.94
47374;BME280;33123;50.118;10.272;2023-02-12T12:11:10;99729.69;;;13.33;57.55
47374;BME280;33123;50.118;10.272;2023-02-12T12:13:43;99731.78;;;13.17;58.12
47374;BME280;33123;50.118;10.272;2023-02-12T12:16:17;99728.19;;;13.05;58.93
47374;BME280;33123;50.118;10.272;2023-02-12T12:19:07;99723.72;;;12.99;59.85
47374;BME280;33123;50.118;10.272;2023-02-12T12:21:57;99725.56;;;13.05;59.42
47374;BME280;33123;50.118;10.272;2023-02-12T12:24:36;99723.91;;;13.11;58.82
47374;BME280;33123;50.118;10.272;2023-02-12T12:27:11;99715.69;;;13.19;59.21
47374;BME280;33123;50.118;10.272;2023-02-12T12:30:02;99713.63;;;13.28;59.45
47374;BME280;33123;50.118;10.272;2023-02-12T12:32:34;99719.56;;;13.23;58.42
47374;BME280;33123;50.118;10.272;2023-02-12T12:35:07;99721.59;;;13.28;58.41
47374;BME280;33123;50.118;10.272;2023-02-12T12:37:37;99711.34;;;13.31;59.00
47374;BME280;33123;50.118;10.272;2023-02-12T12:40:22;99714.06;;;13.25;58.56
47374;BME280;33123;50.118;10.272;2023-02-12T12:43:01;99704.03;;;13.27;58.99
47374;BME280;33123;50.118;10.272;2023-02-12T12:45:46;99714.22;;;13.30;59.03
47374;BME280;33123;50.118;10.272;2023-02-12T12:48:25;99710.19;;;13.27;59.65
47374;BME280;33123;50.118;10.272;2023-02-12T12:51:10;99709.97;;;13.29;59.51
47374;BME280;33123;50.118;10.272;2023-02-12T12:53:53;99712.16;;;13.32;59.42
47374;BME280;33123;50.118;10.272;2023-02-12T12:56:32;99712.16;;;13.32;58.91
47374;BME280;33123;50.118;10.272;2023-02-12T12:59:29;99708.34;;;13.28;58.42
47374;BME280;33123;50.118;10.272;2023-02-12T13:02:31;99702.06;;;13.15;58.78
47374;BME280;33123;50.118;10.272;2023-02-12T13:05:39;99703.38;;;13.00;59.07
47374;BME280;33123;50.118;10.272;2023-02-12T13:08:19;99708.38;;;12.83;59.33
47374;BME280;33123;50.118;10.272;2023-02-12T13:10:54;99703.72;;;12.72;59.65
47374;BME280;33123;50.118;10.272;2023-02-12T13:13:28;99706.00;;;12.61;60.16
47374;BME280;33123;50.118;10.272;2023-02-12T13:16:05;99706.03;;;12.48;60.53
47374;BME280;33123;50.118;10.272;2023-02-12T13:18:44;99716.66;;;12.35;61.22
47374;BME280;33123;50.118;10.272;2023-02-12T13:21:19;99704.47;;;12.21;61.98